Time;durP1;ratioP1;P1;durP2;ratioP2;P2;SDS_P1;SDS_P2;PMS_P1;PMS_P2;Temp;Humidity;BMP_temperature;BMP_pressure;BME280_temperature;BME280_humidity;BME280_pressure;Samples;Min_cycle;Max_cycle;Signal;HPM_P1;HPM_P2
2021/12/17 00:05:03;;;;;;;27.95;13.77;;;;;;;;;;5014443;28;20096;-71
2021/12/17 00:07:30;;;;;;;24.48;12.48;;;;;;;;;;5030578;28;20109;-70
2021/12/17 00:09:58;;;;;;;24.52;13.25;;;;;;;;;;5030540;28;20030;-70
2021/12/17 00:12:25;;;;;;;28.85;14.30;;;;;;;;;;5030562;28;20018;-70
2021/12/17 00:14:51;;;;;;;35.60;16.55;;;;;;;;;;5014376;28;20084;-70
2021/12/17 00:17:24;;;;;;;23.83;12.68;;;;;;;;;;5015217;28;20050;-70
2021/12/17 00:49:52;;;;;;;41.00;20.27;;;;;;;;;;5014416;28;20026;-70
2021/12/17 00:52:18;;;;;;;21.88;13.85;;;;;;;;;;5014447;28;20123;-70
2021/12/17 00:54:44;;;;;;;31.77;15.90;;;;;;;;;;5013596;28;20407;-70
2021/12/17 00:57:18;;;;;;;28.92;15.10;;;;;;;;;;5014198;28;20029;-70
2021/12/17 00:59:46;;;;;;;42.45;20.55;;;;;;;;;;5014808;28;20305;-70
2021/12/17 01:02:14;;;;;;;38.03;17.90;;;;;;;;;;5014447;28;20121;-70
2021/12/17 01:04:45;;;;;;;34.83;17.55;;;;;;;;;;5013307;28;20031;-70
2021/12/17 01:07:11;;;;;;;28.90;14.73;;;;;;;;;;5014075;28;20029;-70
2021/12/17 01:09:37;;;;;;;32.88;16.30;;;;;;;;;;5014247;28;20476;-70
2021/12/17 01:12:04;;;;;;;36.20;16.52;;;;;;;;;;5014196;28;20026;-70
2021/12/17 01:14:31;;;;;;;36.63;18.10;;;;;;;;;;5013049;28;20061;-70
2021/12/17 01:16:57;;;;;;;44.42;22.50;;;;;;;;;;5013723;28;20030;-70
2021/12/17 01:22:26;;;;;;;30.98;16.83;;;;;;;;;;5013743;28;20049;-70
2021/12/17 01:24:51;;;;;;;24.63;14.80;;;;;;;;;;5012939;28;20496;-70
2021/12/17 01:35:33;;;;;;;26.80;15.85;;;;;;;;;;5013481;28;20032;-70
2021/12/17 01:43:35;;;;;;;31.05;16.35;;;;;;;;;;5013088;28;20408;-71
2021/12/17 01:46:03;;;;;;;32.60;18.02;;;;;;;;;;5013366;28;20109;-70
2021/12/17 01:48:36;;;;;;;47.08;21.33;;;;;;;;;;5013322;28;20060;-70
2021/12/17 01:56:53;;;;;;;38.60;20.55;;;;;;;;;;5013141;28;20041;-70
2021/12/17 01:59:36;;;;;;;46.22;24.15;;;;;;;;;;5012585;28;20021;-70
2021/12/17 02:02:04;;;;;;;39.65;20.88;;;;;;;;;;5013035;28;20546;-70
2021/12/17 02:04:31;;;;;;;41.10;22.38;;;;;;;;;;5012164;28;20026;-70
2021/12/17 02:06:58;;;;;;;37.47;20.58;;;;;;;;;;5013017;28;20451;-70
2021/12/17 02:12:30;;;;;;;35.45;19.52;;;;;;;;;;5013020;28;20026;-70
2021/12/17 02:20:23;;;;;;;;;;;;;;;;;;5013419;28;20037;-70
2021/12/17 02:23:19;;;;;;;47.25;22.50;;;;;;;;;;5011981;28;20413;-70
2021/12/17 02:33:33;;;;;;;36.65;19.77;;;;;;;;;;5011883;28;20026;-70
2021/12/17 02:36:00;;;;;;;40.55;21.50;;;;;;;;;;5012392;28;20030;-70
2021/12/17 02:38:29;;;;;;;45.10;21.88;;;;;;;;;;5027657;28;20112;-70
2021/12/17 02:46:25;;;;;;;53.75;23.17;;;;;;;;;;5011569;28;20103;-69
2021/12/17 02:48:51;;;;;;;36.75;18.58;;;;;;;;;;5012198;28;20033;-69
2021/12/17 02:51:17;;;;;;;41.95;21.83;;;;;;;;;;5012287;28;20026;-69
2021/12/17 02:53:43;;;;;;;44.45;21.27;;;;;;;;;;5011570;28;20472;-69
2021/12/17 02:56:09;;;;;;;32.03;18.05;;;;;;;;;;5027218;28;20056;-69
2021/12/17 02:58:37;;;;;;;40.83;19.95;;;;;;;;;;5011923;28;20058;-69
2021/12/17 03:01:04;;;;;;;44.05;21.48;;;;;;;;;;5011959;28;20096;-69
2021/12/17 03:03:32;;;;;;;35.10;19.60;;;;;;;;;;5011279;28;20026;-69
2021/12/17 03:05:58;;;;;;;36.63;19.17;;;;;;;;;;5012351;28;20492;-69
2021/12/17 03:08:24;;;;;;;35.55;18.92;;;;;;;;;;5011826;28;20118;-69
2021/12/17 03:10:52;;;;;;;33.33;18.17;;;;;;;;;;5011921;28;20050;-69
2021/12/17 03:13:19;;;;;;;46.95;21.75;;;;;;;;;;5026160;28;20408;-69
2021/12/17 03:23:42;;;;;;;47.63;22.83;;;;;;;;;;5011275;28;20125;-69
2021/12/17 03:26:12;;;;;;;34.70;17.50;;;;;;;;;;5012000;28;20022;-70
2021/12/17 03:28:39;;;;;;;33.35;17.83;;;;;;;;;;5011540;28;20109;-70
2021/12/17 03:31:06;;;;;;;34.75;17.75;;;;;;;;;;5011662;28;20026;-70
2021/12/17 03:33:32;;;;;;;41.45;22.48;;;;;;;;;;5026143;28;20464;-70
2021/12/17 03:35:58;;;;;;;40.35;20.15;;;;;;;;;;5011483;28;20030;-70
2021/12/17 03:38:25;;;;;;;36.58;19.35;;;;;;;;;;5011483;28;20032;-70
2021/12/17 03:41:02;;;;;;;39.30;20.25;;;;;;;;;;5011488;28;20076;-70
2021/12/17 03:43:30;;;;;;;42.25;20.00;;;;;;;;;;5010951;28;20526;-69
2021/12/17 03:45:57;;;;;;;42.72;21.38;;;;;;;;;;5011500;28;20053;-70
2021/12/17 03:48:23;;;;;;;45.88;20.42;;;;;;;;;;5011568;28;20034;-70
2021/12/17 03:50:49;;;;;;;38.50;20.10;;;;;;;;;;5011056;28;20531;-70
2021/12/17 03:53:15;;;;;;;46.22;22.08;;;;;;;;;;5010712;28;20030;-70
2021/12/17 03:55:41;;;;;;;46.33;23.40;;;;;;;;;;5026302;28;20026;-70
2021/12/17 03:58:07;;;;;;;37.90;20.75;;;;;;;;;;5011350;28;20033;-70
2021/12/17 04:00:33;;;;;;;40.05;20.92;;;;;;;;;;5011368;28;20101;-70
2021/12/17 04:02:59;;;;;;;55.05;25.25;;;;;;;;;;5010302;28;20531;-68
2021/12/17 04:05:25;;;;;;;33.47;17.42;;;;;;;;;;5026138;28;20150;-69
2021/12/17 04:07:52;;;;;;;43.15;20.25;;;;;;;;;;5011498;28;20068;-70
2021/12/17 04:10:18;;;;;;;42.35;20.88;;;;;;;;;;5011404;28;20034;-70
2021/12/17 04:12:55;;;;;;;37.85;20.58;;;;;;;;;;5010719;28;20032;-69
2021/12/17 04:15:31;;;;;;;40.05;21.23;;;;;;;;;;5010989;28;20029;-70
2021/12/17 04:17:58;;;;;;;37.05;20.15;;;;;;;;;;5011346;28;20028;-70
2021/12/17 04:20:25;;;;;;;48.15;25.88;;;;;;;;;;5011319;28;20028;-70
2021/12/17 04:22:51;;;;;;;39.60;22.83;;;;;;;;;;5076321;22;20055;-68
2021/12/17 04:25:17;;;;;;;42.55;22.88;;;;;;;;;;5074252;28;20040;-69
2021/12/17 04:27:43;;;;;;;38.90;22.45;;;;;;;;;;5074244;28;20029;-69
2021/12/17 04:30:09;;;;;;;45.67;22.58;;;;;;;;;;5074443;28;20442;-69
2021/12/17 04:32:35;;;;;;;51.10;23.63;;;;;;;;;;5074729;28;20044;-69
2021/12/17 04:35:01;;;;;;;50.53;25.83;;;;;;;;;;5065852;28;20044;-69
2021/12/17 04:37:27;;;;;;;42.38;22.38;;;;;;;;;;5054136;28;20040;-69
2021/12/17 04:39:53;;;;;;;43.08;22.17;;;;;;;;;;5054115;28;20028;-69
2021/12/17 04:43:31;;;;;;;41.13;22.15;;;;;;;;;;5053931;28;20471;-69
2021/12/17 04:45:14;;;;;;;45.10;22.40;;;;;;;;;;5047044;28;20055;-68
2021/12/17 04:58:38;;;;;;;43.67;21.42;;;;;;;;;;5053625;28;20094;-69
2021/12/17 05:01:10;;;;;;;41.83;23.15;;;;;;;;;;5054219;28;20033;-69
2021/12/17 05:03:36;;;;;;;45.80;22.58;;;;;;;;;;5059669;28;20023;-69
2021/12/17 05:06:02;;;;;;;41.08;22.33;;;;;;;;;;5073737;28;20029;-68
2021/12/17 05:08:29;;;;;;;43.80;21.50;;;;;;;;;;5073616;28;20067;-69
2021/12/17 05:11:17;;;;;;;40.85;22.88;;;;;;;;;;5073612;28;20024;-68
2021/12/17 05:21:36;;;;;;;47.13;22.98;;;;;;;;;;5073235;28;20040;-68
2021/12/17 05:24:02;;;;;;;50.50;25.30;;;;;;;;;;5072613;28;20031;-69
2021/12/17 05:26:28;;;;;;;53.20;23.33;;;;;;;;;;5073299;28;20070;-68
2021/12/17 05:28:55;;;;;;;45.65;22.48;;;;;;;;;;5073201;28;20533;-69
2021/12/17 05:31:21;;;;;;;50.83;25.48;;;;;;;;;;5073056;28;20032;-69
2021/12/17 05:33:48;;;;;;;43.67;22.83;;;;;;;;;;5072304;28;20021;-69
2021/12/17 05:36:15;;;;;;;44.33;24.85;;;;;;;;;;5072967;28;20056;-69
2021/12/17 05:38:41;;;;;;;47.97;23.67;;;;;;;;;;5072489;28;20107;-70
2021/12/17 05:41:07;;;;;;;46.50;23.92;;;;;;;;;;5071868;28;20060;-69
2021/12/17 05:43:37;;;;;;;54.15;26.58;;;;;;;;;;5070786;28;20032;-69
2021/12/17 05:46:10;;;;;;;55.33;24.08;;;;;;;;;;5073199;28;20146;-69
2021/12/17 05:48:36;;;;;;;46.60;23.10;;;;;;;;;;5073060;28;20017;-69
2021/12/17 05:51:05;;;;;;;50.17;25.08;;;;;;;;;;5072904;28;20166;-69
2021/12/17 05:53:31;;;;;;;45.72;22.92;;;;;;;;;;5071615;28;20031;-69
2021/12/17 05:55:58;;;;;;;45.53;23.25;;;;;;;;;;5072610;28;20031;-68
2021/12/17 05:58:24;;;;;;;45.90;23.25;;;;;;;;;;5072389;28;20024;-68
2021/12/17 06:00:50;;;;;;;44.45;22.38;;;;;;;;;;5072965;28;20055;-68
2021/12/17 06:03:18;;;;;;;45.75;24.70;;;;;;;;;;5067548;28;20410;-68
2021/12/17 06:05:44;;;;;;;50.83;22.92;;;;;;;;;;5052384;28;20037;-68
2021/12/17 06:08:10;;;;;;;41.72;21.83;;;;;;;;;;5050617;28;20033;-68
2021/12/17 06:10:36;;;;;;;49.83;24.02;;;;;;;;;;5052135;28;20021;-68
2021/12/17 06:13:02;;;;;;;50.25;23.10;;;;;;;;;;5051429;28;20049;-68
2021/12/17 06:15:28;;;;;;;44.33;22.65;;;;;;;;;;5051606;28;20078;-68
2021/12/17 06:17:54;;;;;;;38.53;21.90;;;;;;;;;;5052009;28;20082;-69
2021/12/17 06:20:22;;;;;;;51.05;22.33;;;;;;;;;;5050952;28;20071;-69
2021/12/17 06:22:48;;;;;;;41.20;22.55;;;;;;;;;;5051202;28;20025;-67
2021/12/17 06:25:15;;;;;;;47.83;23.27;;;;;;;;;;5051793;28;20147;-68
2021/12/17 06:27:41;;;;;;;52.20;24.70;;;;;;;;;;5051768;28;20036;-68
2021/12/17 06:30:08;;;;;;;41.42;23.17;;;;;;;;;;5050539;28;20390;-69
2021/12/17 06:32:34;;;;;;;48.28;23.10;;;;;;;;;;5051617;28;20036;-69
2021/12/17 06:35:00;;;;;;;44.80;23.33;;;;;;;;;;5050914;28;20029;-68
2021/12/17 06:37:26;;;;;;;52.60;25.52;;;;;;;;;;5051325;28;20394;-68
2021/12/17 06:39:52;;;;;;;43.45;22.73;;;;;;;;;;5051923;28;20387;-68
2021/12/17 06:42:18;;;;;;;44.40;22.27;;;;;;;;;;5052363;28;20021;-68
2021/12/17 06:44:46;;;;;;;45.25;21.00;;;;;;;;;;5050762;28;20028;-68
2021/12/17 06:47:26;;;;;;;43.53;21.48;;;;;;;;;;5051202;28;20205;-68
2021/12/17 06:58:36;;;;;;;48.55;24.02;;;;;;;;;;5051322;28;20482;-68
2021/12/17 07:06:12;;;;;;;57.58;25.50;;;;;;;;;;5071721;28;20039;-69
2021/12/17 07:22:43;;;;;;;58.13;29.92;;;;;;;;;;5048816;28;20040;-69
2021/12/17 07:35:37;;;;;;;58.72;28.92;;;;;;;;;;5070857;28;20082;-69
2021/12/17 07:40:48;;;;;;;66.03;29.00;;;;;;;;;;5071648;28;20090;-68
2021/12/17 07:43:24;;;;;;;58.20;28.90;;;;;;;;;;5070372;28;20023;-67
2021/12/17 07:45:50;;;;;;;56.35;28.70;;;;;;;;;;5069737;28;20390;-69
2021/12/17 07:48:16;;;;;;;65.43;31.60;;;;;;;;;;5071009;28;20035;-68
2021/12/17 07:50:42;;;;;;;63.50;29.27;;;;;;;;;;5070957;28;20036;-68
2021/12/17 07:53:08;;;;;;;62.30;29.50;;;;;;;;;;5070466;28;20031;-68
2021/12/17 07:55:34;;;;;;;58.53;28.00;;;;;;;;;;5070193;28;20035;-67
2021/12/17 07:58:00;;;;;;;63.08;31.38;;;;;;;;;;5074810;28;20028;-68
2021/12/17 08:00:26;;;;;;;60.25;27.20;;;;;;;;;;5074879;28;20052;-68
2021/12/17 08:02:52;;;;;;;58.22;27.60;;;;;;;;;;5073303;28;20025;-68
2021/12/17 08:05:19;;;;;;;61.08;27.30;;;;;;;;;;5054784;28;20104;-69
2021/12/17 08:07:45;;;;;;;60.80;29.10;;;;;;;;;;5054261;28;20075;-69
2021/12/17 08:10:11;;;;;;;55.72;28.75;;;;;;;;;;5054612;28;20482;-70
2021/12/17 08:12:37;;;;;;;53.30;28.25;;;;;;;;;;5053725;28;20098;-70
2021/12/17 08:15:05;;;;;;;58.40;29.13;;;;;;;;;;5067423;28;20194;-69
2021/12/17 08:28:24;;;;;;;55.38;27.83;;;;;;;;;;5072002;28;20024;-72
2021/12/17 08:30:50;;;;;;;80.85;36.35;;;;;;;;;;5068345;28;20036;-72
2021/12/17 08:33:20;;;;;;;61.15;30.50;;;;;;;;;;5073358;28;20471;-71
2021/12/17 08:35:46;;;;;;;75.03;35.42;;;;;;;;;;5073660;28;20016;-70
2021/12/17 08:38:12;;;;;;;90.00;43.28;;;;;;;;;;5073632;28;20025;-70
2021/12/17 08:40:38;;;;;;;65.00;31.10;;;;;;;;;;5073622;28;20092;-71
2021/12/17 08:43:05;;;;;;;60.92;30.17;;;;;;;;;;5073289;28;20028;-70
2021/12/17 08:45:31;;;;;;;65.72;32.35;;;;;;;;;;5073988;28;20030;-70
2021/12/17 08:47:57;;;;;;;59.55;27.90;;;;;;;;;;5061655;28;20021;-70
2021/12/17 08:50:23;;;;;;;43.28;23.65;;;;;;;;;;5071397;28;20024;-71
2021/12/17 08:52:49;;;;;;;58.40;28.02;;;;;;;;;;5071810;28;20482;-71
2021/12/17 08:55:16;;;;;;;54.10;25.50;;;;;;;;;;5072008;28;20039;-70
2021/12/17 08:57:42;;;;;;;42.05;21.65;;;;;;;;;;5066865;28;20048;-68
2021/12/17 09:00:10;;;;;;;50.90;26.00;;;;;;;;;;5070322;28;20039;-70
2021/12/17 09:02:37;;;;;;;56.38;26.10;;;;;;;;;;5072518;28;20496;-71
2021/12/17 09:05:07;;;;;;;86.18;40.05;;;;;;;;;;5069836;28;20016;-71
2021/12/17 09:07:33;;;;;;;59.75;27.70;;;;;;;;;;5072548;28;20021;-70
2021/12/17 09:09:59;;;;;;;43.95;23.88;;;;;;;;;;5071588;28;20107;-70
2021/12/17 09:12:25;;;;;;;55.35;28.20;;;;;;;;;;5072675;28;20020;-69
2021/12/17 09:14:51;;;;;;;51.85;26.27;;;;;;;;;;5072087;28;20069;-71
2021/12/17 09:17:19;;;;;;;41.20;21.50;;;;;;;;;;5071793;28;20040;-70
2021/12/17 09:19:44;;;;;;;58.10;28.90;;;;;;;;;;5073175;28;20028;-70
2021/12/17 09:22:10;;;;;;;50.95;28.00;;;;;;;;;;5062519;28;20033;-70
2021/12/17 09:24:36;;;;;;;45.05;23.52;;;;;;;;;;5072551;28;20027;-71
2021/12/17 09:27:03;;;;;;;47.70;22.77;;;;;;;;;;5071331;28;20550;-70
2021/12/17 09:29:29;;;;;;;48.35;24.90;;;;;;;;;;5072624;28;20040;-70
2021/12/17 09:31:54;;;;;;;44.42;23.10;;;;;;;;;;5072893;28;20032;-70
2021/12/17 09:34:21;;;;;;;50.15;23.05;;;;;;;;;;5070894;28;20517;-71
2021/12/17 09:36:47;;;;;;;53.45;24.90;;;;;;;;;;5072783;28;20082;-71
2021/12/17 09:39:13;;;;;;;51.10;23.42;;;;;;;;;;5072678;28;20021;-71
2021/12/17 09:41:43;;;;;;;147.70;76.30;;;;;;;;;;5071513;28;20532;-71
2021/12/17 09:44:09;;;;;;;139.25;59.50;;;;;;;;;;5067179;28;20113;-68
2021/12/17 09:46:35;;;;;;;53.08;24.48;;;;;;;;;;5067362;28;20013;-70
2021/12/17 09:49:01;;;;;;;62.65;31.38;;;;;;;;;;5072401;28;20472;-69
2021/12/17 09:51:27;;;;;;;43.28;23.65;;;;;;;;;;5072322;28;20048;-70
2021/12/17 09:53:53;;;;;;;54.15;28.13;;;;;;;;;;5068673;28;20107;-73
2021/12/17 09:56:19;;;;;;;47.28;22.58;;;;;;;;;;5067185;28;20104;-69
2021/12/17 09:58:45;;;;;;;75.47;33.17;;;;;;;;;;5072225;28;20484;-68
2021/12/17 10:01:11;;;;;;;74.35;34.58;;;;;;;;;;5066083;28;20021;-71
2021/12/17 10:03:37;;;;;;;57.65;26.75;;;;;;;;;;5063238;28;20025;-71
2021/12/17 10:06:03;;;;;;;61.40;29.70;;;;;;;;;;5071180;28;20112;-71
2021/12/17 10:08:29;;;;;;;52.42;25.80;;;;;;;;;;5070266;28;20056;-71
2021/12/17 10:10:59;;;;;;;53.70;26.48;;;;;;;;;;5070773;28;20557;-71
2021/12/17 10:13:27;;;;;;;55.83;27.10;;;;;;;;;;5070113;28;20051;-71
2021/12/17 10:15:55;;;;;;;47.38;23.98;;;;;;;;;;5070273;28;20036;-67
2021/12/17 10:18:51;;;;;;;44.15;24.00;;;;;;;;;;5069805;28;20093;-70
2021/12/17 10:21:21;;;;;;;135.90;59.05;;;;;;;;;;5058630;28;20028;-71
2021/12/17 10:23:47;;;;;;;81.32;36.20;;;;;;;;;;5055627;22;20041;-72
2021/12/17 10:26:14;;;;;;;105.95;49.97;;;;;;;;;;5032440;28;20049;-73
2021/12/17 10:29:00;;;;;;;64.57;29.50;;;;;;;;;;5032502;28;20030;-73
2021/12/17 10:31:27;;;;;;;59.17;30.23;;;;;;;;;;5033915;28;20053;-72
2021/12/17 10:33:54;;;;;;;44.65;22.20;;;;;;;;;;5032440;28;20436;-73
2021/12/17 10:36:38;;;;;;;46.35;25.20;;;;;;;;;;5035267;28;20056;-72
2021/12/17 10:39:04;;;;;;;42.40;23.15;;;;;;;;;;5035064;28;20118;-73
2021/12/17 10:41:32;;;;;;;60.72;30.15;;;;;;;;;;5051972;28;20029;-73
2021/12/17 10:44:06;;;;;;;55.03;26.63;;;;;;;;;;5046505;28;20451;-72
2021/12/17 10:46:35;;;;;;;60.40;27.90;;;;;;;;;;5032261;28;20537;-72
2021/12/17 10:54:12;;;;;;;51.92;24.55;;;;;;;;;;5049541;28;20021;-71
2021/12/17 10:56:51;;;;;;;58.80;30.55;;;;;;;;;;5046363;28;20041;-72
2021/12/17 10:59:19;;;;;;;82.65;38.00;;;;;;;;;;5030669;28;20068;-72
2021/12/17 11:01:49;;;;;;;54.72;28.70;;;;;;;;;;5014822;28;20029;-73
2021/12/17 11:04:20;;;;;;;44.87;22.27;;;;;;;;;;5027098;28;20499;-72
2021/12/17 11:06:53;;;;;;;59.47;27.63;;;;;;;;;;5022773;28;20034;-72
2021/12/17 11:09:36;;;;;;;43.00;21.02;;;;;;;;;;5013579;28;20128;-72
2021/12/17 11:12:23;;;;;;;57.00;27.40;;;;;;;;;;5031681;28;20036;-72
2021/12/17 11:14:49;;;;;;;40.83;20.55;;;;;;;;;;5025168;28;20041;-73
2021/12/17 11:17:16;;;;;;;69.70;31.98;;;;;;;;;;5029413;28;20031;-72
2021/12/17 11:19:43;;;;;;;38.30;21.15;;;;;;;;;;5028467;28;20117;-72
2021/12/17 11:22:09;;;;;;;54.65;28.25;;;;;;;;;;5029743;28;20526;-71
2021/12/17 11:24:36;;;;;;;46.65;23.55;;;;;;;;;;5029000;28;20120;-72
2021/12/17 11:27:05;;;;;;;53.95;25.10;;;;;;;;;;5030214;28;20025;-73
2021/12/17 11:29:31;;;;;;;53.83;26.00;;;;;;;;;;5030004;28;20026;-72
2021/12/17 11:31:59;;;;;;;56.85;26.10;;;;;;;;;;5035610;28;20056;-73
2021/12/17 11:34:25;;;;;;;47.55;23.80;;;;;;;;;;5035254;28;20064;-72
2021/12/17 11:36:52;;;;;;;51.10;27.20;;;;;;;;;;5035954;28;20389;-72
2021/12/17 11:39:18;;;;;;;56.67;27.15;;;;;;;;;;5035435;28;20032;-72
2021/12/17 11:41:52;;;;;;;52.17;27.30;;;;;;;;;;5022228;28;20068;-73
2021/12/17 11:44:20;;;;;;;61.92;30.77;;;;;;;;;;5024665;28;20022;-73
2021/12/17 11:47:00;;;;;;;48.38;23.25;;;;;;;;;;5035169;28;20032;-73
2021/12/17 11:49:26;;;;;;;59.40;29.17;;;;;;;;;;5033130;28;20022;-74
2021/12/17 11:51:54;;;;;;;45.83;23.58;;;;;;;;;;5023021;28;20033;-72
2021/12/17 11:54:26;;;;;;;44.15;24.13;;;;;;;;;;5013444;28;20120;-72
2021/12/17 11:57:04;;;;;;;46.80;24.15;;;;;;;;;;5015323;28;20033;-72
2021/12/17 11:59:32;;;;;;;52.70;27.10;;;;;;;;;;5015642;28;20408;-73
2021/12/17 12:02:08;;;;;;;51.67;26.02;;;;;;;;;;5015464;28;20076;-73
2021/12/17 12:04:34;;;;;;;41.75;19.63;;;;;;;;;;5032527;28;20497;-73
2021/12/17 12:07:04;;;;;;;61.13;28.58;;;;;;;;;;5034682;28;20069;-72
2021/12/17 12:09:59;;;;;;;40.75;22.15;;;;;;;;;;5034780;28;20079;-72
2021/12/17 12:12:29;;;;;;;58.47;26.25;;;;;;;;;;5032465;28;20104;-72
2021/12/17 12:14:59;;;;;;;51.38;24.77;;;;;;;;;;5033084;28;20041;-73
2021/12/17 12:17:54;;;;;;;45.47;20.88;;;;;;;;;;5032919;28;20032;-72
2021/12/17 12:20:39;;;;;;;55.90;24.00;;;;;;;;;;5016764;28;20041;-72
2021/12/17 12:23:22;;;;;;;40.65;21.25;;;;;;;;;;5032079;28;20083;-72
2021/12/17 12:26:08;;;;;;;45.97;21.60;;;;;;;;;;5034669;28;20032;-73
2021/12/17 12:29:05;;;;;;;44.20;19.83;;;;;;;;;;5034518;28;20025;-72
2021/12/17 12:31:38;;;;;;;48.55;23.80;;;;;;;;;;5034673;28;20029;-72
2021/12/17 12:34:13;;;;;;;45.55;24.50;;;;;;;;;;5033582;28;20628;-72
2021/12/17 12:36:51;;;;;;;40.00;20.35;;;;;;;;;;5034721;28;20083;-72
2021/12/17 12:39:36;;;;;;;46.58;22.77;;;;;;;;;;5034387;28;20049;-72
2021/12/17 12:42:05;;;;;;;38.38;19.38;;;;;;;;;;5033233;28;20060;-72
2021/12/17 12:44:40;;;;;;;38.60;20.35;;;;;;;;;;5033148;28;20083;-72
2021/12/17 12:47:07;;;;;;;40.88;19.23;;;;;;;;;;5034234;28;20164;-71
2021/12/17 12:49:48;;;;;;;34.33;18.13;;;;;;;;;;5034282;28;20033;-71
2021/12/17 12:52:14;;;;;;;;;;;;;;;;;;5034590;28;20025;-71
2021/12/17 12:54:40;;;;;;;39.05;19.67;;;;;;;;;;5031879;28;20330;-72
2021/12/17 12:57:06;;;;;;;42.67;20.13;;;;;;;;;;5033575;28;20116;-72
2021/12/17 12:59:32;;;;;;;45.22;20.90;;;;;;;;;;5033628;28;20399;-72
2021/12/17 13:01:58;;;;;;;40.90;19.30;;;;;;;;;;5033755;28;20056;-72
2021/12/17 13:04:30;;;;;;;39.63;19.63;;;;;;;;;;5017919;28;20026;-72
2021/12/17 13:06:56;;;;;;;43.45;21.85;;;;;;;;;;5012070;28;20029;-72
2021/12/17 13:09:29;;;;;;;37.13;19.77;;;;;;;;;;5012023;28;20026;-72
2021/12/17 13:11:55;;;;;;;34.08;18.27;;;;;;;;;;5011888;28;20112;-73
2021/12/17 13:14:24;;;;;;;40.88;20.73;;;;;;;;;;5016348;28;20108;-71
2021/12/17 13:17:28;;;;;;;35.17;20.05;;;;;;;;;;5031744;28;20053;-71
2021/12/17 13:22:53;;;;;;;44.38;22.23;;;;;;;;;;5033749;28;20105;-71
2021/12/17 13:25:25;;;;;;;38.85;19.95;;;;;;;;;;5033675;28;20479;-73
2021/12/17 13:27:52;;;;;;;41.72;22.67;;;;;;;;;;5013950;28;20022;-72
2021/12/17 13:30:23;;;;;;;39.42;20.75;;;;;;;;;;5013653;28;20034;-71
2021/12/17 13:32:51;;;;;;;39.97;20.48;;;;;;;;;;5021651;28;20438;-71
2021/12/17 13:35:17;;;;;;;43.17;23.63;;;;;;;;;;5031983;28;20045;-72
2021/12/17 13:37:44;;;;;;;42.75;22.88;;;;;;;;;;5033460;28;20018;-71
2021/12/17 13:40:12;;;;;;;56.08;27.42;;;;;;;;;;5031763;28;20434;-71
2021/12/17 13:42:39;;;;;;;46.60;23.88;;;;;;;;;;5033219;28;20029;-74
2021/12/17 13:45:09;;;;;;;47.95;24.77;;;;;;;;;;5032123;28;20076;-72
2021/12/17 13:47:47;;;;;;;54.92;27.42;;;;;;;;;;5033038;28;20017;-72
2021/12/17 13:50:15;;;;;;;40.35;23.13;;;;;;;;;;5033344;28;20030;-71
2021/12/17 13:52:53;;;;;;;44.22;25.33;;;;;;;;;;5032174;28;20472;-71
2021/12/17 13:55:33;;;;;;;47.90;25.52;;;;;;;;;;5032486;28;20018;-71
2021/12/17 13:58:01;;;;;;;36.45;20.10;;;;;;;;;;5032468;28;20029;-72
2021/12/17 14:00:31;;;;;;;43.58;23.42;;;;;;;;;;5032766;28;20156;-72
2021/12/17 14:02:57;;;;;;;40.55;22.10;;;;;;;;;;5030011;28;20018;-72
2021/12/17 14:05:28;;;;;;;38.28;22.50;;;;;;;;;;5030872;28;20460;-72
2021/12/17 14:07:59;;;;;;;36.22;20.65;;;;;;;;;;5031548;28;20415;-72
2021/12/17 14:10:27;;;;;;;39.00;20.48;;;;;;;;;;5030228;28;20495;-72
2021/12/17 14:12:53;;;;;;;39.83;23.13;;;;;;;;;;5030812;28;20236;-72
2021/12/17 14:15:21;;;;;;;43.17;21.98;;;;;;;;;;5031604;28;20507;-73
2021/12/17 14:17:53;;;;;;;42.55;22.27;;;;;;;;;;5031872;28;20022;-71
2021/12/17 14:20:22;;;;;;;37.45;21.15;;;;;;;;;;5032181;28;20071;-73
2021/12/17 14:22:50;;;;;;;39.28;20.40;;;;;;;;;;5031635;28;20036;-72
2021/12/17 14:25:23;;;;;;;33.45;20.00;;;;;;;;;;5032065;28;20029;-71
2021/12/17 14:27:49;;;;;;;38.25;19.48;;;;;;;;;;5032193;28;20471;-71
2021/12/17 14:30:15;;;;;;;40.67;20.33;;;;;;;;;;5032462;28;20128;-72
2021/12/17 14:32:46;;;;;;;42.70;21.35;;;;;;;;;;5031934;28;20026;-73
2021/12/17 14:35:13;;;;;;;28.75;16.92;;;;;;;;;;5032051;28;20076;-72
2021/12/17 14:37:47;;;;;;;39.30;20.73;;;;;;;;;;5032021;28;20053;-73
2021/12/17 14:40:50;;;;;;;33.00;17.77;;;;;;;;;;5032344;28;20117;-73
2021/12/17 14:43:20;;;;;;;34.92;18.55;;;;;;;;;;5031122;28;20079;-73
2021/12/17 14:46:13;;;;;;;30.33;17.63;;;;;;;;;;5031913;28;20479;-72
2021/12/17 14:48:54;;;;;;;30.30;18.10;;;;;;;;;;5032039;28;20029;-71
2021/12/17 15:04:36;;;;;;;29.80;17.42;;;;;;;;;;5029940;28;20048;-72
2021/12/17 15:07:02;;;;;;;34.85;18.02;;;;;;;;;;5032209;28;20112;-70
2021/12/17 15:09:27;;;;;;;37.92;21.50;;;;;;;;;;5030781;28;20030;-72
2021/12/17 15:11:59;;;;;;;42.35;22.70;;;;;;;;;;5030141;28;20033;-72
2021/12/17 15:14:25;;;;;;;;;;;;;;;;;;5029623;28;20377;-72
2021/12/17 15:16:51;;;;;;;38.97;19.73;;;;;;;;;;5031432;28;19962;-72
2021/12/17 15:19:17;;;;;;;38.38;21.35;;;;;;;;;;5031598;28;20021;-72
2021/12/17 15:21:43;;;;;;;34.40;18.83;;;;;;;;;;5031577;28;20029;-72
2021/12/17 15:24:09;;;;;;;37.70;20.30;;;;;;;;;;5030660;28;20025;-73
2021/12/17 15:26:35;;;;;;;38.67;21.17;;;;;;;;;;5020105;28;20021;-73
2021/12/17 15:29:01;;;;;;;40.05;20.55;;;;;;;;;;5011905;28;20026;-72
2021/12/17 15:31:27;;;;;;;42.72;21.23;;;;;;;;;;5011576;28;20060;-73
2021/12/17 15:33:53;;;;;;;36.75;20.35;;;;;;;;;;5009818;28;20097;-72
2021/12/17 15:36:19;;;;;;;35.83;20.15;;;;;;;;;;5012096;28;20137;-72
2021/12/17 15:38:45;;;;;;;32.92;18.13;;;;;;;;;;5011867;28;20218;-72
2021/12/17 15:41:11;;;;;;;32.47;17.73;;;;;;;;;;5011991;28;20022;-72
2021/12/17 15:43:37;;;;;;;33.63;18.90;;;;;;;;;;5015102;28;20083;-72
2021/12/17 15:46:03;;;;;;;38.80;18.88;;;;;;;;;;5031328;28;20029;-72
2021/12/17 15:48:29;;;;;;;32.55;18.17;;;;;;;;;;5031599;28;20026;-71
2021/12/17 15:50:55;;;;;;;32.63;19.05;;;;;;;;;;5031326;28;20032;-72
2021/12/17 15:53:21;;;;;;;31.08;17.10;;;;;;;;;;5030824;28;20022;-69
2021/12/17 15:55:47;;;;;;;27.33;16.52;;;;;;;;;;5029728;28;20044;-71
2021/12/17 15:58:13;;;;;;;36.78;17.30;;;;;;;;;;5030905;28;20109;-71
2021/12/17 16:00:39;;;;;;;30.50;16.77;;;;;;;;;;5031494;28;20036;-72
2021/12/17 16:03:07;;;;;;;33.20;18.20;;;;;;;;;;5030009;28;20096;-72
2021/12/17 16:05:34;;;;;;;33.47;17.15;;;;;;;;;;5029154;28;20025;-74
2021/12/17 16:08:09;;;;;;;34.92;18.83;;;;;;;;;;5017191;28;20076;-73
2021/12/17 16:21:34;;;;;;;31.33;17.00;;;;;;;;;;5021834;28;20555;-73
2021/12/17 16:24:00;;;;;;;37.00;18.90;;;;;;;;;;5043314;22;20041;-73
2021/12/17 16:26:26;;;;;;;28.45;16.83;;;;;;;;;;5029389;28;20037;-75
2021/12/17 16:28:52;;;;;;;30.85;16.80;;;;;;;;;;5019183;28;20029;-71
2021/12/17 16:31:28;;;;;;;31.13;15.73;;;;;;;;;;5022663;28;20028;-77
2021/12/17 16:33:58;;;;;;;31.70;17.75;;;;;;;;;;5020852;28;20496;-76
2021/12/17 16:36:24;;;;;;;34.05;16.10;;;;;;;;;;5016500;28;20128;-74
2021/12/17 16:38:50;;;;;;;26.35;14.88;;;;;;;;;;5015943;28;20022;-75
2021/12/17 16:41:16;;;;;;;29.00;16.35;;;;;;;;;;5023738;28;20060;-71
2021/12/17 16:43:44;;;;;;;30.52;16.63;;;;;;;;;;5032628;28;20429;-74
2021/12/17 16:48:37;;;;;;;30.70;16.25;;;;;;;;;;5018827;28;20045;-79
2021/12/17 16:51:03;;;;;;;28.00;16.83;;;;;;;;;;5025934;28;20029;-74
2021/12/17 16:53:29;;;;;;;32.85;15.95;;;;;;;;;;5011694;28;20042;-75
2021/12/17 16:55:55;;;;;;;29.75;16.10;;;;;;;;;;5029018;28;20538;-74
2021/12/17 16:58:21;;;;;;;30.75;16.75;;;;;;;;;;5009136;28;20115;-76
2021/12/17 17:00:47;;;;;;;28.52;16.38;;;;;;;;;;5020910;28;20040;-74
2021/12/17 17:03:14;;;;;;;29.42;17.75;;;;;;;;;;5033918;28;20024;-76
2021/12/17 17:05:40;;;;;;;24.75;14.55;;;;;;;;;;5033479;28;20104;-75
2021/12/17 17:08:06;;;;;;;36.17;16.88;;;;;;;;;;5016821;28;20026;-72
2021/12/17 17:10:34;;;;;;;28.23;15.13;;;;;;;;;;5027513;28;20543;-72
2021/12/17 17:13:03;;;;;;;30.45;16.23;;;;;;;;;;5019259;28;20499;-72
2021/12/17 17:15:33;;;;;;;35.13;17.38;;;;;;;;;;5019646;28;20208;-74
2021/12/17 17:17:59;;;;;;;29.52;17.23;;;;;;;;;;5012778;28;20022;-74
2021/12/17 17:20:26;;;;;;;29.58;16.25;;;;;;;;;;5029786;28;20057;-75
2021/12/17 17:22:52;;;;;;;26.52;15.85;;;;;;;;;;5022115;28;20025;-73
2021/12/17 17:25:18;;;;;;;30.92;16.75;;;;;;;;;;5022733;28;20034;-75
2021/12/17 17:27:44;;;;;;;30.98;16.20;;;;;;;;;;5026998;28;20018;-73
2021/12/17 17:30:10;;;;;;;29.77;16.50;;;;;;;;;;5016690;28;20396;-73
2021/12/17 17:32:36;;;;;;;32.28;16.25;;;;;;;;;;5028200;28;20021;-74
2021/12/17 17:35:03;;;;;;;27.92;16.08;;;;;;;;;;5020762;28;20106;-74
2021/12/17 17:37:31;;;;;;;32.28;17.20;;;;;;;;;;5020768;28;20038;-72
2021/12/17 17:39:57;;;;;;;25.55;16.20;;;;;;;;;;5028702;28;20032;-73